Time;durP1;ratioP1;P1;durP2;ratioP2;P2;SDS_P1;SDS_P2;PMS_P1;PMS_P2;Temp;Humidity;BMP_temperature;BMP_pressure;BME280_temperature;BME280_humidity;BME280_pressure;Samples;Min_cycle;Max_cycle;Signal;HPM_P1;HPM_P2
2023/06/11 00:01:40;;;;;;;9.47;8.77;;;17.50;99.90;;;;;;5070114;28;20928;-73
2023/06/11 00:04:08;;;;;;;9.53;8.63;;;17.40;99.90;;;;;;5068461;28;20937;-73
2023/06/11 00:06:36;;;;;;;9.97;9.17;;;17.40;99.90;;;;;;5066962;28;20466;-75
2023/06/11 00:09:04;;;;;;;9.43;8.60;;;17.30;99.90;;;;;;5069952;28;20846;-74
2023/06/11 00:11:33;;;;;;;9.93;9.13;;;17.20;99.90;;;;;;5064504;28;20463;-74
2023/06/11 00:14:01;;;;;;;9.90;9.03;;;17.20;99.90;;;;;;5068257;28;20486;-72
2023/06/11 00:16:32;;;;;;;8.83;8.03;;;17.10;99.90;;;;;;5069989;28;20435;-74
2023/06/11 00:19:02;;;;;;;10.13;9.27;;;17.10;99.90;;;;;;5069510;28;20734;-73
2023/06/11 00:21:30;;;;;;;9.53;8.73;;;17.10;99.90;;;;;;5069832;28;20438;-73
2023/06/11 00:23:58;;;;;;;9.13;8.40;;;17.10;99.90;;;;;;5068815;28;20486;-74
2023/06/11 00:26:26;;;;;;;9.67;8.93;;;17.10;99.90;;;;;;5069933;28;20475;-74
2023/06/11 00:28:54;;;;;;;10.43;9.50;;;17.10;99.90;;;;;;5063783;28;20893;-72
2023/06/11 00:31:22;;;;;;;10.57;9.70;;;17.10;99.90;;;;;;5070209;28;20467;-72
2023/06/11 00:33:52;;;;;;;9.80;9.00;;;17.10;99.90;;;;;;5070293;28;20549;-73
2023/06/11 00:36:21;;;;;;;10.83;9.90;;;17.20;99.90;;;;;;5070632;28;21001;-74
2023/06/11 00:38:49;;;;;;;10.43;9.47;;;17.10;99.90;;;;;;5070468;28;20454;-74
2023/06/11 00:41:17;;;;;;;11.03;9.93;;;17.20;99.90;;;;;;5070665;28;20462;-71
2023/06/11 00:43:45;;;;;;;11.40;10.40;;;17.30;99.90;;;;;;5068842;28;20439;-71
2023/06/11 00:46:13;;;;;;;10.13;9.43;;;17.30;99.90;;;;;;5070447;28;20530;-70
2023/06/11 00:48:41;;;;;;;10.03;9.23;;;17.40;99.90;;;;;;5070224;28;20443;-70
2023/06/11 00:51:12;;;;;;;11.10;10.20;;;17.30;99.90;;;;;;5070623;28;21010;-70
2023/06/11 00:53:40;;;;;;;10.97;9.90;;;17.20;99.90;;;;;;5069334;28;20475;-70
2023/06/11 00:56:08;;;;;;;11.03;10.13;;;17.20;99.90;;;;;;5069770;28;20482;-70
2023/06/11 00:58:36;;;;;;;11.93;10.83;;;17.10;99.90;;;;;;5071865;28;20533;-70
2023/06/11 01:01:06;;;;;;;10.10;9.27;;;17.00;99.90;;;;;;5071611;28;20544;-70
2023/06/11 01:03:34;;;;;;;9.83;8.93;;;17.00;99.90;;;;;;5070498;28;20438;-69
2023/06/11 01:06:05;;;;;;;10.70;9.60;;;17.00;99.90;;;;;;5071690;28;20447;-70
2023/06/11 01:08:38;;;;;;;9.67;8.87;;;17.00;99.90;;;;;;5071473;28;20955;-71
2023/06/11 01:11:13;;;;;;;10.40;9.50;;;17.00;99.90;;;;;;5071285;28;20478;-72
2023/06/11 01:13:41;;;;;;;10.73;9.60;;;17.00;99.90;;;;;;5070513;28;20520;-71
2023/06/11 01:16:15;;;;;;;10.90;9.90;;;16.90;99.90;;;;;;5071133;28;20530;-71
2023/06/11 01:18:53;;;;;;;11.60;10.60;;;16.90;99.90;;;;;;5071597;28;20435;-69
2023/06/11 01:21:25;;;;;;;10.70;9.80;;;16.90;99.90;;;;;;5071341;28;20459;-71
2023/06/11 01:24:04;;;;;;;11.10;10.10;;;16.80;99.90;;;;;;5070531;28;20467;-69
2023/06/11 01:26:44;;;;;;;12.40;11.40;;;16.70;99.90;;;;;;5071266;28;20496;-72
2023/06/11 01:29:16;;;;;;;9.93;9.13;;;16.70;99.90;;;;;;5071070;28;20504;-75
2023/06/11 01:31:45;;;;;;;11.13;10.23;;;16.60;99.90;;;;;;5071491;28;20443;-72
2023/06/11 01:34:14;;;;;;;12.00;10.90;;;16.60;99.90;;;;;;5070399;28;20544;-69
2023/06/11 01:36:43;;;;;;;13.13;12.10;;;16.60;99.90;;;;;;5070694;28;20435;-70
2023/06/11 01:39:11;;;;;;;13.63;12.33;;;16.70;99.90;;;;;;5070695;28;20548;-72
2023/06/11 01:41:40;;;;;;;23.23;12.67;;;16.70;99.90;;;;;;5070976;28;20524;-72
2023/06/11 01:44:07;;;;;;;12.10;10.50;;;16.60;99.90;;;;;;5070154;28;20540;-72
2023/06/11 01:46:37;;;;;;;14.03;10.63;;;16.60;99.90;;;;;;5071056;28;21154;-71
2023/06/11 01:49:05;;;;;;;22.30;12.03;;;16.50;99.90;;;;;;5070705;28;20509;-72
2023/06/11 01:51:33;;;;;;;12.17;10.97;;;16.50;99.90;;;;;;5070145;28;20538;-71
2023/06/11 01:54:01;;;;;;;10.83;9.73;;;16.40;99.90;;;;;;5069718;28;20930;-72
2023/06/11 01:56:29;;;;;;;12.53;10.80;;;16.30;99.90;;;;;;5070169;28;21001;-71
2023/06/11 01:58:57;;;;;;;12.03;10.70;;;16.30;99.90;;;;;;5070729;28;20818;-70
2023/06/11 02:01:28;;;;;;;14.60;11.57;;;16.30;99.90;;;;;;5070154;28;20490;-70
2023/06/11 02:03:58;;;;;;;16.00;10.43;;;16.30;99.90;;;;;;5069281;28;20524;-71
2023/06/11 02:06:26;;;;;;;19.77;11.53;;;16.30;99.90;;;;;;5070574;28;20558;-71
2023/06/11 02:08:54;;;;;;;12.73;11.57;;;16.20;99.90;;;;;;5070867;28;20557;-70
2023/06/11 02:11:22;;;;;;;19.17;11.70;;;16.20;99.90;;;;;;5070116;28;21016;-70
2023/06/11 02:13:49;;;;;;;22.17;12.00;;;16.20;99.90;;;;;;5069157;28;20989;-70
2023/06/11 02:16:17;;;;;;;19.70;11.17;;;16.20;99.90;;;;;;5070300;28;20865;-70
2023/06/11 02:18:45;;;;;;;22.33;11.17;;;16.20;99.90;;;;;;5070672;28;20470;-70
2023/06/11 02:21:15;;;;;;;14.90;10.60;;;16.20;99.90;;;;;;5070313;28;20822;-72
2023/06/11 02:23:43;;;;;;;11.90;10.80;;;16.20;99.90;;;;;;5069417;28;20534;-72
2023/06/11 02:26:11;;;;;;;17.90;12.03;;;16.20;99.90;;;;;;5070269;28;20446;-72
2023/06/11 02:28:39;;;;;;;14.80;11.33;;;16.20;99.90;;;;;;5070430;28;20898;-73
2023/06/11 02:31:07;;;;;;;12.63;10.90;;;16.20;99.90;;;;;;5070158;28;20511;-72
2023/06/11 02:33:35;;;;;;;11.73;10.60;;;16.20;99.90;;;;;;5069388;28;20981;-75
2023/06/11 02:36:03;;;;;;;12.07;10.80;;;16.20;99.90;;;;;;5070494;28;20447;-71
2023/06/11 02:38:32;;;;;;;11.40;10.40;;;16.30;99.90;;;;;;5070334;28;20541;-71
2023/06/11 02:41:00;;;;;;;11.03;10.03;;;16.30;99.90;;;;;;5070354;28;20463;-70
2023/06/11 02:43:28;;;;;;;10.00;9.20;;;16.20;99.90;;;;;;5069788;28;20858;-71
2023/06/11 02:45:56;;;;;;;12.03;10.93;;;16.00;99.90;;;;;;5070416;28;20487;-71
2023/06/11 02:48:24;;;;;;;11.23;10.33;;;15.90;99.90;;;;;;5070642;28;20435;-72
2023/06/11 02:50:52;;;;;;;11.23;10.23;;;15.80;99.90;;;;;;5070272;28;20497;-73
2023/06/11 02:53:20;;;;;;;12.70;11.43;;;15.70;99.90;;;;;;5069180;28;20446;-72
2023/06/11 02:55:49;;;;;;;12.47;11.27;;;15.70;99.90;;;;;;5070026;28;20558;-72
2023/06/11 02:58:17;;;;;;;12.60;11.40;;;15.70;99.90;;;;;;5070158;28;20441;-71
2023/06/11 03:00:45;;;;;;;10.83;9.90;;;15.70;99.90;;;;;;5070527;28;20463;-71
2023/06/11 03:03:13;;;;;;;12.30;11.10;;;15.70;99.90;;;;;;5075814;28;20450;-71
2023/06/11 03:05:41;;;;;;;11.27;10.27;;;15.70;99.90;;;;;;5076780;28;20446;-71
2023/06/11 03:08:09;;;;;;;12.00;10.77;;;15.70;99.90;;;;;;5077060;28;20531;-71
2023/06/11 03:10:37;;;;;;;11.30;10.23;;;15.80;99.90;;;;;;5076950;28;20467;-71
2023/06/11 03:13:07;;;;;;;10.63;9.73;;;15.90;99.90;;;;;;5075575;28;20455;-71
2023/06/11 03:15:35;;;;;;;10.33;9.43;;;16.00;99.90;;;;;;5076795;28;20926;-72
2023/06/11 03:18:03;;;;;;;10.73;9.73;;;15.90;99.90;;;;;;5076792;28;20515;-72
2023/06/11 03:20:31;;;;;;;11.50;10.40;;;15.90;99.90;;;;;;5077257;28;20501;-71
2023/06/11 03:22:59;;;;;;;10.90;9.97;;;15.90;99.90;;;;;;5076342;28;20530;-71
2023/06/11 03:25:27;;;;;;;11.03;10.03;;;15.80;99.90;;;;;;5077038;28;20945;-72
2023/06/11 03:27:55;;;;;;;11.60;10.60;;;15.70;99.90;;;;;;5076941;28;20467;-71
2023/06/11 03:30:24;;;;;;;11.77;10.77;;;15.60;99.90;;;;;;5076541;28;20459;-71
2023/06/11 03:32:52;;;;;;;12.30;11.20;;;15.50;99.90;;;;;;5075328;28;20882;-71
2023/06/11 03:35:20;;;;;;;10.50;9.60;;;15.60;99.90;;;;;;5076244;28;20749;-71
2023/06/11 03:37:48;;;;;;;11.23;10.13;;;15.50;99.90;;;;;;5076129;28;20518;-72
2023/06/11 03:40:16;;;;;;;10.97;9.97;;;15.50;99.90;;;;;;5076191;28;20502;-71
2023/06/11 03:42:44;;;;;;;11.50;10.30;;;15.50;99.90;;;;;;5075297;28;20454;-70
2023/06/11 03:45:12;;;;;;;11.60;10.60;;;15.50;99.90;;;;;;5075790;28;20812;-71
2023/06/11 03:47:43;;;;;;;13.13;11.93;;;15.50;99.90;;;;;;5076193;28;20456;-71
2023/06/11 03:50:12;;;;;;;11.63;10.63;;;15.40;99.90;;;;;;5075979;28;20479;-71
2023/06/11 03:52:40;;;;;;;11.67;10.63;;;15.30;99.90;;;;;;5074714;28;20711;-70
2023/06/11 03:55:09;;;;;;;12.20;11.20;;;15.40;99.90;;;;;;5075838;28;20482;-70
2023/06/11 03:57:38;;;;;;;10.70;9.80;;;15.40;99.90;;;;;;5075668;28;20435;-70
2023/06/11 04:00:07;;;;;;;9.67;8.87;;;15.50;99.90;;;;;;5076115;28;20494;-70
2023/06/11 04:02:35;;;;;;;11.57;10.67;;;15.70;99.90;;;;;;5074981;28;20447;-70
2023/06/11 04:05:06;;;;;;;9.77;9.00;;;15.80;99.90;;;;;;5075838;28;20481;-71
2023/06/11 04:07:35;;;;;;;10.80;9.90;;;15.70;99.90;;;;;;5076034;28;20494;-70
2023/06/11 04:10:03;;;;;;;9.87;8.97;;;15.80;99.90;;;;;;5075885;28;20462;-70
2023/06/11 04:12:31;;;;;;;10.80;9.80;;;15.90;99.90;;;;;;5074363;28;21086;-71
2023/06/11 04:14:59;;;;;;;10.50;9.60;;;15.90;99.90;;;;;;5072083;28;20476;-71
2023/06/11 04:17:27;;;;;;;11.03;10.07;;;15.90;99.90;;;;;;5072807;28;20469;-72
2023/06/11 04:19:55;;;;;;;11.07;10.03;;;15.90;99.90;;;;;;5072868;28;20466;-72
2023/06/11 04:22:25;;;;;;;10.17;9.37;;;15.90;99.90;;;;;;5072395;28;20445;-71
2023/06/11 04:24:53;;;;;;;10.50;9.60;;;15.90;99.90;;;;;;5072764;28;20929;-70
2023/06/11 04:27:21;;;;;;;12.80;10.10;;;15.90;99.90;;;;;;5072993;28;20443;-72
2023/06/11 04:29:52;;;;;;;10.60;9.70;;;16.00;99.90;;;;;;5072745;28;20459;-71
2023/06/11 04:32:20;;;;;;;11.47;10.57;;;16.10;99.90;;;;;;5072716;28;20447;-72
2023/06/11 04:34:49;;;;;;;10.57;9.73;;;16.20;99.90;;;;;;5073095;28;20474;-70
2023/06/11 04:37:17;;;;;;;13.03;11.83;;;16.20;99.90;;;;;;5072718;28;20490;-72
2023/06/11 04:39:47;;;;;;;10.03;9.23;;;16.20;99.90;;;;;;5073173;28;20494;-70
2023/06/11 04:42:16;;;;;;;11.63;10.47;;;16.30;99.90;;;;;;5072471;28;20478;-74
2023/06/11 04:44:47;;;;;;;9.67;8.87;;;16.40;99.90;;;;;;5072219;28;20522;-69
2023/06/11 04:47:15;;;;;;;10.77;9.97;;;16.60;99.90;;;;;;5072263;28;20450;-71
2023/06/11 04:49:44;;;;;;;11.27;10.00;;;16.60;99.90;;;;;;5072126;28;20459;-70
2023/06/11 04:52:12;;;;;;;10.90;10.00;;;16.60;99.90;;;;;;5071864;28;20522;-70
2023/06/11 04:54:41;;;;;;;11.10;10.00;;;16.70;99.90;;;;;;5071484;28;20458;-70
2023/06/11 04:57:10;;;;;;;10.60;9.60;;;16.80;99.90;;;;;;5071697;28;20442;-71
2023/06/11 04:59:38;;;;;;;11.80;9.17;;;16.90;99.90;;;;;;5072242;28;20502;-70
2023/06/11 05:02:06;;;;;;;9.40;8.70;;;16.90;99.90;;;;;;5071537;28;20447;-69
2023/06/11 05:04:34;;;;;;;10.00;9.20;;;17.00;99.90;;;;;;5071211;28;20439;-70
2023/06/11 05:07:05;;;;;;;11.40;10.07;;;17.10;99.90;;;;;;5071739;28;20925;-70
2023/06/11 05:09:33;;;;;;;12.93;10.33;;;17.20;99.90;;;;;;5071596;28;20475;-71
2023/06/11 05:12:01;;;;;;;16.43;9.70;;;17.30;99.90;;;;;;5071821;28;20814;-73
2023/06/11 05:14:30;;;;;;;18.60;10.77;;;17.40;99.90;;;;;;5070736;28;20447;-70
2023/06/11 05:16:59;;;;;;;18.10;9.50;;;17.40;99.90;;;;;;5071423;28;20944;-71
2023/06/11 05:19:28;;;;;;;16.67;10.77;;;17.50;99.90;;;;;;5071264;28;20494;-71
2023/06/11 05:21:56;;;;;;;18.40;9.33;;;17.60;99.90;;;;;;5071735;28;20474;-71
2023/06/11 05:24:28;;;;;;;11.20;9.43;;;17.80;99.90;;;;;;5069760;28;20430;-70
2023/06/11 05:26:57;;;;;;;15.97;10.07;;;17.80;99.90;;;;;;5070988;28;20526;-70
2023/06/11 05:29:26;;;;;;;9.40;8.60;;;17.90;99.90;;;;;;5071008;28;21070;-69
2023/06/11 05:31:56;;;;;;;10.27;9.37;;;18.00;99.90;;;;;;5071244;28;20443;-72
2023/06/11 05:34:25;;;;;;;9.10;8.30;;;18.00;99.90;;;;;;5070123;28;20937;-73
2023/06/11 05:36:54;;;;;;;8.50;7.80;;;18.10;99.90;;;;;;5071056;28;21103;-72
2023/06/11 05:39:22;;;;;;;9.53;8.80;;;18.20;99.90;;;;;;5071309;28;20983;-73
2023/06/11 05:41:50;;;;;;;9.40;8.60;;;18.30;99.90;;;;;;5071314;28;20443;-73
2023/06/11 05:44:18;;;;;;;9.53;8.77;;;18.40;99.90;;;;;;5070315;28;20493;-71
2023/06/11 05:46:46;;;;;;;8.87;8.13;;;18.50;99.60;;;;;;5071250;28;20439;-72
2023/06/11 05:49:15;;;;;;;9.27;8.57;;;18.60;99.90;;;;;;5071371;28;20999;-71
2023/06/11 05:51:43;;;;;;;8.70;8.10;;;18.70;99.30;;;;;;5071079;28;20452;-71
2023/06/11 05:54:11;;;;;;;9.47;8.30;;;18.80;99.20;;;;;;5069677;28;20538;-72
2023/06/11 05:56:39;;;;;;;9.30;8.50;;;18.90;98.40;;;;;;5070656;28;20510;-73
2023/06/11 05:59:07;;;;;;;8.97;7.90;;;19.00;97.80;;;;;;5070633;28;20819;-70
2023/06/11 06:01:36;;;;;;;8.53;7.83;;;19.10;98.00;;;;;;5070552;28;20518;-71
2023/06/11 06:04:05;;;;;;;8.47;7.87;;;19.30;97.10;;;;;;5069333;28;20797;-71
2023/06/11 06:06:35;;;;;;;8.97;8.27;;;19.40;96.80;;;;;;5070479;28;20439;-71
2023/06/11 06:09:04;;;;;;;9.60;8.80;;;19.40;97.10;;;;;;5070066;28;21002;-70
2023/06/11 06:11:32;;;;;;;9.20;8.30;;;19.50;95.90;;;;;;5070322;28;20463;-71
2023/06/11 06:14:00;;;;;;;9.40;8.60;;;19.50;97.30;;;;;;5068684;28;20475;-71
2023/06/11 06:16:28;;;;;;;9.20;8.60;;;19.60;96.70;;;;;;5070350;28;20545;-71
2023/06/11 06:18:56;;;;;;;8.47;7.67;;;19.70;95.50;;;;;;5070235;28;20450;-70
2023/06/11 06:21:24;;;;;;;9.27;7.57;;;19.70;95.90;;;;;;5070298;28;20459;-70
2023/06/11 06:23:53;;;;;;;8.00;7.37;;;19.80;96.40;;;;;;5068751;28;20949;-71
2023/06/11 06:26:22;;;;;;;9.10;8.40;;;19.90;95.10;;;;;;5070174;28;20526;-70
2023/06/11 06:28:52;;;;;;;9.10;8.33;;;20.00;94.90;;;;;;5070098;28;20439;-69
2023/06/11 06:31:22;;;;;;;8.60;8.00;;;20.10;95.60;;;;;;5070026;28;20459;-71
2023/06/11 06:33:51;;;;;;;8.13;7.50;;;20.10;96.10;;;;;;5069271;28;20510;-71
2023/06/11 06:36:20;;;;;;;9.03;8.33;;;20.20;94.60;;;;;;5069792;28;20470;-71
2023/06/11 06:38:48;;;;;;;9.07;8.20;;;20.20;95.70;;;;;;5069855;28;20941;-71
2023/06/11 06:41:17;;;;;;;9.10;8.40;;;20.30;95.10;;;;;;5069766;28;20516;-71
2023/06/11 06:43:47;;;;;;;9.27;8.57;;;20.40;94.80;;;;;;5068636;28;20949;-71
2023/06/11 06:46:21;;;;;;;8.83;8.10;;;20.50;94.40;;;;;;5069797;28;20484;-71
2023/06/11 06:48:50;;;;;;;9.03;8.40;;;20.60;93.30;;;;;;5069795;28;20483;-71
2023/06/11 06:51:20;;;;;;;8.73;8.03;;;20.70;93.50;;;;;;5069677;28;20823;-70
2023/06/11 06:53:48;;;;;;;9.00;8.40;;;20.90;93.10;;;;;;5068361;28;20530;-71
2023/06/11 06:56:18;;;;;;;8.50;7.80;;;20.90;92.60;;;;;;5069582;28;20522;-71
2023/06/11 06:58:46;;;;;;;9.30;8.60;;;21.00;92.80;;;;;;5070186;28;20473;-71
2023/06/11 07:01:14;;;;;;;8.97;8.20;;;21.20;91.90;;;;;;5069922;28;20877;-71
2023/06/11 07:03:42;;;;;;;8.97;8.27;;;21.20;91.40;;;;;;5069313;28;20443;-71
2023/06/11 07:06:10;;;;;;;8.20;7.60;;;21.30;91.50;;;;;;5069905;28;20991;-71
2023/06/11 07:08:41;;;;;;;8.20;7.60;;;21.40;90.40;;;;;;5069379;28;21023;-71
2023/06/11 07:11:09;;;;;;;8.27;7.77;;;21.50;90.50;;;;;;5069711;28;20961;-72
2023/06/11 07:13:40;;;;;;;8.00;7.40;;;21.60;90.30;;;;;;5068133;28;20489;-72
2023/06/11 07:16:09;;;;;;;8.13;7.53;;;21.70;88.10;;;;;;5069433;28;20447;-71
2023/06/11 07:18:38;;;;;;;8.23;7.63;;;21.90;87.70;;;;;;5069206;28;20450;-72
2023/06/11 07:21:06;;;;;;;8.37;7.67;;;22.00;87.10;;;;;;5069501;28;20463;-71
2023/06/11 07:23:34;;;;;;;8.40;7.63;;;22.10;84.60;;;;;;5068091;28;20500;-71
2023/06/11 07:26:03;;;;;;;9.33;8.40;;;22.30;85.30;;;;;;5069260;28;20941;-71
2023/06/11 07:28:31;;;;;;;8.23;7.73;;;22.40;85.30;;;;;;5069221;28;20493;-72
2023/06/11 07:31:00;;;;;;;7.83;7.23;;;22.50;85.70;;;;;;5069343;28;20479;-72
2023/06/11 07:33:28;;;;;;;8.03;7.27;;;22.50;85.10;;;;;;5057044;28;20431;-72
2023/06/11 07:35:56;;;;;;;8.27;7.67;;;22.70;84.80;;;;;;5059485;28;20444;-71
2023/06/11 07:38:24;;;;;;;8.07;7.50;;;22.80;81.50;;;;;;5066020;28;20528;-71
2023/06/11 07:40:53;;;;;;;8.83;8.13;;;22.90;80.60;;;;;;5064480;28;20459;-72
2023/06/11 07:43:21;;;;;;;8.97;8.23;;;23.00;81.40;;;;;;5058566;28;20443;-71
2023/06/11 07:45:49;;;;;;;8.97;8.37;;;23.10;78.60;;;;;;5057989;28;20869;-71
2023/06/11 07:48:18;;;;;;;8.60;7.70;;;23.20;77.40;;;;;;5059004;28;20519;-69
2023/06/11 07:50:49;;;;;;;8.80;8.20;;;23.20;77.40;;;;;;5061562;28;20456;-71
2023/06/11 07:53:18;;;;;;;8.27;7.37;;;23.30;77.30;;;;;;5057754;28;20444;-72
2023/06/11 07:55:47;;;;;;;9.20;8.40;;;23.40;79.30;;;;;;5065006;28;20459;-71
2023/06/11 07:58:15;;;;;;;8.07;7.37;;;23.50;77.30;;;;;;5066492;28;20477;-71
2023/06/11 08:00:43;;;;;;;8.77;8.07;;;23.60;78.50;;;;;;5072790;28;20510;-71
2023/06/11 08:03:11;;;;;;;9.00;8.30;;;23.60;76.90;;;;;;5071229;28;20683;-73
2023/06/11 08:05:41;;;;;;;8.00;7.40;;;23.80;75.90;;;;;;5072796;28;20509;-73
2023/06/11 08:08:09;;;;;;;8.93;8.00;;;23.80;73.00;;;;;;5072577;28;20437;-72
2023/06/11 08:10:39;;;;;;;8.73;8.10;;;24.00;74.60;;;;;;5072493;28;20462;-74
2023/06/11 08:13:07;;;;;;;8.03;7.43;;;24.00;72.40;;;;;;5071521;28;20455;-72
2023/06/11 08:15:35;;;;;;;9.30;8.60;;;24.10;71.50;;;;;;5072747;28;20447;-71
2023/06/11 08:18:03;;;;;;;7.97;7.37;;;24.20;72.80;;;;;;5072550;28;20470;-70
2023/06/11 08:20:31;;;;;;;8.20;7.40;;;24.30;72.10;;;;;;5072590;28;20463;-71
2023/06/11 08:23:01;;;;;;;7.70;7.10;;;24.50;72.30;;;;;;5071374;28;20439;-69
2023/06/11 08:25:29;;;;;;;8.17;7.47;;;24.50;70.70;;;;;;5072907;28;20423;-68
2023/06/11 08:27:57;;;;;;;8.10;7.40;;;24.60;70.10;;;;;;5072946;28;20820;-71
2023/06/11 08:30:25;;;;;;;7.77;7.07;;;24.80;67.00;;;;;;5072361;28;20524;-72
2023/06/11 08:32:53;;;;;;;8.10;7.50;;;24.80;65.20;;;;;;5071499;28;20443;-71
2023/06/11 08:35:24;;;;;;;7.50;7.00;;;24.90;68.30;;;;;;5072225;28;20431;-69
2023/06/11 08:37:52;;;;;;;7.47;6.97;;;25.00;67.60;;;;;;5072189;28;20475;-72
2023/06/11 08:40:22;;;;;;;7.87;7.17;;;25.00;66.40;;;;;;5072304;28;20836;-70
2023/06/11 08:42:50;;;;;;;8.90;8.10;;;25.10;66.20;;;;;;5071035;28;20604;-68
2023/06/11 08:45:19;;;;;;;7.40;6.83;;;25.20;66.10;;;;;;5068467;28;20501;-70
2023/06/11 08:47:50;;;;;;;7.40;6.80;;;25.40;65.40;;;;;;5072003;28;20835;-73
2023/06/11 08:50:20;;;;;;;7.40;6.83;;;25.60;64.10;;;;;;5071630;28;20447;-71
2023/06/11 08:52:51;;;;;;;7.60;7.00;;;25.80;64.40;;;;;;5070925;28;20446;-71
2023/06/11 08:55:21;;;;;;;6.60;6.20;;;26.00;57.70;;;;;;5071991;28;20960;-73
2023/06/11 08:57:51;;;;;;;7.37;6.77;;;26.20;59.40;;;;;;5065979;28;20503;-71
2023/06/11 09:00:21;;;;;;;7.60;6.80;;;26.30;58.20;;;;;;5056083;28;20452;-71
2023/06/11 09:02:49;;;;;;;7.53;6.83;;;26.30;56.70;;;;;;5059663;28;20959;-71
2023/06/11 09:05:17;;;;;;;7.23;6.63;;;26.40;55.50;;;;;;5060623;28;20946;-72
2023/06/11 09:07:49;;;;;;;7.30;6.70;;;26.30;56.90;;;;;;5061440;28;20428;-72
2023/06/11 09:10:18;;;;;;;6.80;6.10;;;26.30;56.20;;;;;;5051526;28;20460;-71
2023/06/11 09:12:47;;;;;;;7.13;6.57;;;26.30;53.50;;;;;;5050154;28;20436;-72
2023/06/11 09:15:18;;;;;;;7.47;6.30;;;26.40;56.40;;;;;;5051239;28;20472;-69
2023/06/11 09:17:47;;;;;;;6.30;5.80;;;26.40;55.50;;;;;;5054236;28;20944;-75
2023/06/11 09:20:17;;;;;;;6.87;6.37;;;26.50;56.70;;;;;;5062402;28;20473;-71
2023/06/11 09:22:46;;;;;;;6.70;6.10;;;26.50;55.20;;;;;;5060333;28;20858;-73
2023/06/11 09:25:16;;;;;;;7.43;6.83;;;26.60;54.20;;;;;;5065150;28;20438;-73
2023/06/11 09:27:47;;;;;;;8.27;6.03;;;26.80;52.90;;;;;;5065823;28;20940;-75
2023/06/11 09:30:17;;;;;;;7.93;6.40;;;26.90;53.10;;;;;;5068175;28;20486;-77
2023/06/11 09:32:47;;;;;;;6.63;6.03;;;26.90;50.30;;;;;;5062098;28;20492;-72
2023/06/11 09:35:16;;;;;;;7.47;6.20;;;27.00;49.80;;;;;;5069882;28;20508;-73
2023/06/11 09:37:51;;;;;;;8.37;6.43;;;27.00;48.10;;;;;;5069704;28;20993;-73
2023/06/11 09:40:23;;;;;;;7.53;6.80;;;27.10;49.00;;;;;;5059239;28;21057;-72
2023/06/11 09:42:53;;;;;;;6.80;5.97;;;27.20;50.20;;;;;;5062521;28;20943;-72
2023/06/11 09:45:23;;;;;;;10.67;7.30;;;27.30;46.00;;;;;;5059992;28;20535;-71
2023/06/11 09:47:51;;;;;;;7.50;6.80;;;27.50;46.60;;;;;;5059037;28;21091;-70
2023/06/11 09:50:21;;;;;;;6.63;6.13;;;27.60;48.60;;;;;;5059652;28;21276;-73
2023/06/11 09:52:52;;;;;;;6.93;6.43;;;27.80;45.10;;;;;;5060174;28;20490;-71
2023/06/11 09:55:21;;;;;;;6.90;6.30;;;28.10;48.10;;;;;;5060112;28;20469;-72
2023/06/11 09:57:53;;;;;;;6.60;6.10;;;28.40;46.40;;;;;;5063234;28;20502;-70
2023/06/11 10:00:23;;;;;;;7.30;6.63;;;28.70;44.10;;;;;;5062232;28;20531;-73
2023/06/11 10:02:51;;;;;;;6.77;6.17;;;29.10;45.30;;;;;;5053083;28;21013;-73
2023/06/11 10:05:20;;;;;;;6.77;6.20;;;29.60;42.90;;;;;;5062347;28;21006;-73
2023/06/11 10:08:03;;;;;;;6.23;5.83;;;30.30;40.30;;;;;;5058410;28;20487;-72
2023/06/11 10:10:37;;;;;;;6.40;5.90;;;30.70;39.20;;;;;;5062355;28;20487;-71
2023/06/11 10:13:05;;;;;;;6.07;5.67;;;30.70;37.70;;;;;;5066051;28;20489;-72
2023/06/11 10:15:37;;;;;;;6.40;5.90;;;30.60;36.90;;;;;;5069693;28;20475;-72
2023/06/11 10:18:13;;;;;;;6.70;6.20;;;30.70;35.80;;;;;;5074660;28;20474;-74
2023/06/11 10:20:52;;;;;;;6.80;5.70;;;30.70;39.20;;;;;;5060232;28;20980;-71
2023/06/11 10:23:20;;;;;;;6.67;6.10;;;31.40;38.10;;;;;;5059393;28;20883;-72
2023/06/11 10:25:55;;;;;;;6.13;5.73;;;31.80;37.50;;;;;;5054939;28;20885;-70
2023/06/11 10:28:36;;;;;;;6.20;5.60;;;32.10;34.10;;;;;;5057813;28;20846;-71
2023/06/11 10:31:05;;;;;;;6.63;5.97;;;31.80;33.80;;;;;;5056335;28;20845;-71
2023/06/11 10:33:37;;;;;;;6.53;6.03;;;31.20;35.50;;;;;;5054089;28;20489;-70
2023/06/11 10:36:06;;;;;;;6.87;6.00;;;31.40;36.00;;;;;;5053379;28;20875;-70
2023/06/11 10:38:38;;;;;;;7.10;6.50;;;31.40;34.90;;;;;;5065599;28;20506;-71
2023/06/11 10:41:06;;;;;;;6.00;5.43;;;31.30;39.40;;;;;;5071005;28;20860;-71
2023/06/11 10:43:37;;;;;;;6.37;5.97;;;31.70;38.50;;;;;;5057422;28;20587;-70
2023/06/11 10:46:11;;;;;;;7.00;6.40;;;32.20;37.00;;;;;;5051059;28;20432;-71
2023/06/11 10:48:50;;;;;;;6.33;5.90;;;32.40;38.70;;;;;;5055828;28;20436;-70
2023/06/11 10:51:18;;;;;;;6.97;6.47;;;33.10;37.10;;;;;;5055109;28;20494;-70
2023/06/11 10:53:55;;;;;;;6.67;6.17;;;33.30;36.40;;;;;;5051427;28;20539;-70
2023/06/11 10:56:25;;;;;;;7.70;7.10;;;33.50;36.50;;;;;;5061569;28;20457;-71
2023/06/11 10:58:55;;;;;;;6.70;6.10;;;33.80;36.50;;;;;;5064887;28;20471;-70
2023/06/11 11:01:24;;;;;;;6.30;5.90;;;33.80;34.30;;;;;;5068553;28;20487;-69
2023/06/11 11:03:53;;;;;;;6.90;6.40;;;33.80;35.10;;;;;;5064748;28;20443;-70
2023/06/11 11:06:26;;;;;;;7.87;7.17;;;34.40;35.20;;;;;;5059195;28;21285;-71
2023/06/11 11:08:56;;;;;;;6.67;6.10;;;34.40;34.30;;;;;;5057230;28;20432;-70
2023/06/11 11:11:26;;;;;;;6.63;5.97;;;34.30;35.20;;;;;;5056290;28;20881;-71
2023/06/11 11:13:54;;;;;;;6.13;5.73;;;34.10;36.50;;;;;;5048236;28;20486;-69
2023/06/11 11:16:23;;;;;;;7.00;6.40;;;34.00;35.90;;;;;;5052097;28;20493;-69
2023/06/11 11:18:52;;;;;;;6.33;5.83;;;34.40;35.00;;;;;;5060816;28;20554;-72
2023/06/11 11:21:28;;;;;;;6.70;6.13;;;34.70;32.80;;;;;;5055173;28;21152;-73
2023/06/11 11:23:56;;;;;;;7.10;6.60;;;34.60;32.50;;;;;;5060309;28;20435;-73
2023/06/11 11:26:26;;;;;;;7.30;6.73;;;34.60;33.40;;;;;;5070350;28;20470;-70
2023/06/11 11:28:54;;;;;;;7.10;6.50;;;34.80;34.00;;;;;;5058462;28;20430;-70
2023/06/11 11:31:24;;;;;;;6.40;5.80;;;35.00;34.50;;;;;;5056547;28;20463;-70
2023/06/11 11:33:52;;;;;;;6.33;5.83;;;35.20;32.70;;;;;;5056596;28;20443;-71
2023/06/11 11:36:23;;;;;;;6.33;5.80;;;34.90;35.20;;;;;;5058215;28;20467;-71
2023/06/11 11:38:51;;;;;;;7.10;6.37;;;34.20;32.70;;;;;;5059942;28;20561;-73
2023/06/11 11:41:22;;;;;;;7.07;5.90;;;33.90;34.40;;;;;;5057390;28;20467;-69
2023/06/11 11:43:50;;;;;;;6.80;6.30;;;34.30;32.00;;;;;;5057684;28;20439;-70
2023/06/11 11:46:20;;;;;;;7.20;6.50;;;33.90;30.90;;;;;;5060591;28;20439;-70
2023/06/11 11:48:55;;;;;;;6.90;6.40;;;33.50;34.00;;;;;;5060080;28;20444;-70
2023/06/11 11:51:25;;;;;;;7.10;6.60;;;33.00;32.10;;;;;;5063096;28;20454;-71
2023/06/11 11:53:53;;;;;;;7.40;6.90;;;32.60;37.80;;;;;;5056022;28;20443;-71
2023/06/11 11:56:21;;;;;;;7.00;6.30;;;33.00;41.10;;;;;;5060893;28;20550;-72
2023/06/11 11:58:54;;;;;;;7.07;6.40;;;33.90;35.80;;;;;;5060446;28;20471;-71
2023/06/11 12:01:26;;;;;;;7.40;6.80;;;34.70;33.90;;;;;;5059126;28;20459;-71
2023/06/11 12:04:00;;;;;;;7.40;6.90;;;35.20;30.20;;;;;;5061502;28;20523;-69
2023/06/11 12:06:30;;;;;;;7.33;6.83;;;35.50;29.70;;;;;;5062540;28;20948;-71
2023/06/11 12:08:58;;;;;;;7.30;6.60;;;35.40;33.50;;;;;;5061869;28;20439;-70
2023/06/11 12:11:26;;;;;;;6.80;6.30;;;35.80;30.10;;;;;;5058742;28;20656;-71
2023/06/11 12:13:54;;;;;;;6.50;6.00;;;36.00;33.90;;;;;;5057752;28;20859;-71
2023/06/11 12:16:23;;;;;;;6.77;6.27;;;36.40;31.30;;;;;;5061341;28;20435;-71
2023/06/11 12:18:53;;;;;;;6.40;5.90;;;36.80;31.80;;;;;;5049949;28;20440;-71
2023/06/11 12:21:36;;;;;;;7.03;6.10;;;36.90;29.80;;;;;;5060649;28;20420;-74
2023/06/11 12:24:04;;;;;;;7.47;6.90;;;37.00;29.50;;;;;;5053699;28;20909;-70
2023/06/11 12:26:33;;;;;;;7.57;7.00;;;36.10;28.20;;;;;;5056642;28;20443;-71
2023/06/11 12:29:01;;;;;;;6.53;6.03;;;35.30;29.60;;;;;;5070099;28;20436;-71
2023/06/11 12:31:29;;;;;;;7.20;5.93;;;34.50;30.40;;;;;;5067115;28;21044;-71
2023/06/11 12:33:57;;;;;;;6.33;5.80;;;33.60;31.60;;;;;;5061793;28;20895;-71
2023/06/11 12:36:25;;;;;;;6.10;5.70;;;33.80;28.50;;;;;;5057664;28;20436;-71
2023/06/11 12:38:54;;;;;;;9.93;6.50;;;34.30;32.60;;;;;;5060605;28;20439;-70
2023/06/11 12:41:22;;;;;;;6.80;6.30;;;34.90;35.40;;;;;;5054569;28;20465;-73
2023/06/11 12:43:50;;;;;;;6.87;6.27;;;35.60;30.30;;;;;;5068885;28;20443;-71
2023/06/11 12:46:18;;;;;;;6.60;6.10;;;36.50;29.70;;;;;;5069888;28;20990;-71
2023/06/11 12:48:46;;;;;;;7.23;6.63;;;37.20;29.50;;;;;;5070327;28;20814;-69
2023/06/11 12:51:14;;;;;;;6.47;5.97;;;37.50;30.10;;;;;;5052875;28;20543;-72